Time;durP1;ratioP1;P1;durP2;ratioP2;P2;SDS_P1;SDS_P2;PMS_P1;PMS_P2;Temp;Humidity;BMP_temperature;BMP_pressure;BME280_temperature;BME280_humidity;BME280_pressure;Samples;Min_cycle;Max_cycle;Signal;HPM_P1;HPM_P2
2021/12/23 00:00:54;;;;;;;0.20;0.20;;;-2.20;99.90;;;;;;5102741;28;20565;-69
2021/12/23 00:03:23;;;;;;;0.20;0.20;;;-2.20;99.90;;;;;;5120686;28;20223;-70
2021/12/23 00:05:50;;;;;;;0.20;0.20;;;-2.20;99.90;;;;;;5102848;28;20204;-69
2021/12/23 00:08:17;;;;;;;0.20;0.20;;;-2.20;99.90;;;;;;5101178;28;20201;-68
2021/12/23 00:10:44;;;;;;;0.20;0.20;;;-2.10;99.90;;;;;;5101319;28;20495;-69
2021/12/23 00:13:11;;;;;;;0.20;0.20;;;-2.00;99.90;;;;;;5107147;27;20233;-69
2021/12/23 00:15:50;;;;;;;0.20;0.20;;;-2.00;99.90;;;;;;5106749;27;20193;-68
2021/12/23 00:18:30;;;;;;;0.20;0.20;;;-2.00;99.90;;;;;;5112448;27;20204;-68
2021/12/23 00:23:43;;;;;;;0.20;0.20;;;-2.00;99.90;;;;;;5107152;27;20216;-68
2021/12/23 00:26:11;;;;;;;0.20;0.20;;;-2.00;99.90;;;;;;5116772;27;20196;-69
2021/12/23 00:28:38;;;;;;;0.20;0.20;;;-2.00;99.90;;;;;;5117267;27;20201;-69
2021/12/23 00:31:06;;;;;;;0.20;0.20;;;-2.00;99.90;;;;;;5106816;27;20268;-69
2021/12/23 00:33:35;;;;;;;0.20;0.20;;;-2.00;99.90;;;;;;5107250;27;20216;-70
2021/12/23 00:36:05;;;;;;;0.20;0.20;;;-2.00;99.90;;;;;;5112246;27;20260;-69
2021/12/23 00:38:36;;;;;;;0.20;0.20;;;-2.00;99.90;;;;;;5105089;27;20224;-70
2021/12/23 00:41:04;;;;;;;0.30;0.30;;;-2.00;99.90;;;;;;5106600;27;20199;-68
2021/12/23 00:43:32;;;;;;;0.20;0.20;;;-2.00;99.90;;;;;;5124832;27;20224;-69
2021/12/23 00:46:00;;;;;;;0.20;0.20;;;-2.00;99.90;;;;;;5106221;27;20340;-70
2021/12/23 00:48:27;;;;;;;0.20;0.20;;;-2.00;99.90;;;;;;5107120;27;20246;-69
2021/12/23 00:50:55;;;;;;;0.20;0.20;;;-1.90;99.90;;;;;;5112475;27;20197;-69
2021/12/23 00:53:23;;;;;;;0.20;0.20;;;-2.00;99.90;;;;;;5124528;27;20235;-68
2021/12/23 00:55:54;;;;;;;0.20;0.20;;;-1.90;99.90;;;;;;5097813;27;20666;-69
2021/12/23 00:58:21;;;;;;;0.20;0.20;;;-1.90;99.90;;;;;;5103770;27;20212;-68
2021/12/23 01:00:49;;;;;;;0.20;0.20;;;-2.00;99.90;;;;;;5105794;27;20232;-69
2021/12/23 01:03:18;;;;;;;0.20;0.20;;;-2.00;99.90;;;;;;5123219;27;20245;-68
2021/12/23 01:05:45;;;;;;;0.20;0.20;;;-2.00;99.90;;;;;;5106896;27;20212;-68
2021/12/23 01:08:12;;;;;;;0.20;0.20;;;-1.90;99.90;;;;;;5103521;27;20204;-69
2021/12/23 01:10:40;;;;;;;0.10;0.10;;;-1.90;99.90;;;;;;5105484;27;20849;-69
2021/12/23 01:13:13;;;;;;;0.20;0.20;;;-1.90;99.90;;;;;;5114707;27;20259;-69
2021/12/23 01:15:59;;;;;;;0.20;0.20;;;-1.90;99.90;;;;;;5106514;27;20210;-69
2021/12/23 01:18:30;;;;;;;0.20;0.20;;;-1.90;99.90;;;;;;5115708;27;20204;-68
2021/12/23 01:21:04;;;;;;;0.20;0.20;;;-1.80;99.90;;;;;;5105827;27;20200;-69
2021/12/23 01:23:39;;;;;;;0.20;0.20;;;-1.80;99.90;;;;;;5095970;27;20762;-69
2021/12/23 01:26:08;;;;;;;0.20;0.20;;;-1.80;99.90;;;;;;5122011;27;20192;-69
2021/12/23 01:28:34;;;;;;;0.20;0.20;;;-1.80;99.90;;;;;;5104811;27;20203;-69
2021/12/23 01:31:01;;;;;;;0.20;0.20;;;-1.80;99.90;;;;;;5104078;27;20560;-69
2021/12/23 01:33:28;;;;;;;0.20;0.20;;;-1.80;99.90;;;;;;5105824;27;20244;-69
2021/12/23 01:35:55;;;;;;;0.20;0.20;;;-1.90;99.90;;;;;;5104662;27;20200;-68
2021/12/23 01:38:22;;;;;;;0.20;0.20;;;-1.90;99.90;;;;;;5104365;27;20204;-71
2021/12/23 01:40:49;;;;;;;0.20;0.20;;;-1.80;99.90;;;;;;5104485;27;20228;-69
2021/12/23 01:43:18;;;;;;;0.20;0.20;;;-1.90;99.90;;;;;;5104307;27;20289;-70
2021/12/23 01:45:47;;;;;;;0.20;0.20;;;-1.90;99.90;;;;;;5105248;27;20200;-69
2021/12/23 01:48:15;;;;;;;0.20;0.20;;;-2.00;99.90;;;;;;5124583;27;20237;-69
2021/12/23 01:50:42;;;;;;;0.25;0.25;;;-2.00;99.90;;;;;;5103811;27;20196;-70
2021/12/23 01:53:09;;;;;;;0.20;0.20;;;-2.00;99.90;;;;;;5103835;27;20296;-69
2021/12/23 01:55:38;;;;;;;0.20;0.20;;;-2.00;99.90;;;;;;5103758;27;20262;-69
2021/12/23 01:58:06;;;;;;;0.30;0.30;;;-2.10;99.90;;;;;;5124818;27;20211;-69
2021/12/23 02:00:37;;;;;;;0.20;0.20;;;-2.00;99.90;;;;;;5095932;27;20196;-70
2021/12/23 02:03:05;;;;;;;0.20;0.20;;;-2.10;99.90;;;;;;5113980;27;20224;-70
2021/12/23 02:05:32;;;;;;;0.20;0.20;;;-2.10;99.90;;;;;;5102892;27;20200;-70
2021/12/23 02:07:59;;;;;;;0.20;0.20;;;-2.10;99.90;;;;;;5120860;27;20250;-71
2021/12/23 02:10:27;;;;;;;0.20;0.20;;;-2.10;99.90;;;;;;5124952;27;20230;-70
2021/12/23 02:12:55;;;;;;;0.20;0.20;;;-2.10;99.90;;;;;;5096859;27;20213;-67
2021/12/23 02:15:22;;;;;;;0.20;0.20;;;-2.10;99.90;;;;;;5103251;27;20220;-68
2021/12/23 02:17:51;;;;;;;0.20;0.20;;;-2.20;99.90;;;;;;5123897;27;20257;-69
2021/12/23 02:20:21;;;;;;;0.20;0.20;;;-2.10;99.90;;;;;;5104158;27;20339;-68
2021/12/23 02:22:49;;;;;;;0.20;0.20;;;-2.10;99.90;;;;;;5122513;27;20216;-69
2021/12/23 02:25:17;;;;;;;0.20;0.20;;;-2.10;99.90;;;;;;5104225;27;20279;-68
2021/12/23 02:27:45;;;;;;;0.20;0.20;;;-2.10;99.90;;;;;;5122399;27;20225;-68
2021/12/23 02:30:15;;;;;;;0.20;0.20;;;-2.10;99.90;;;;;;5102239;27;20208;-69
2021/12/23 02:32:42;;;;;;;0.20;0.20;;;-2.10;99.90;;;;;;5122678;27;20264;-68
2021/12/23 02:35:13;;;;;;;0.20;0.20;;;-2.00;99.90;;;;;;5099731;27;20200;-68
2021/12/23 02:37:42;;;;;;;0.20;0.20;;;-2.00;99.90;;;;;;5103277;27;20200;-69
2021/12/23 02:40:11;;;;;;;0.22;0.22;;;-2.10;99.90;;;;;;5104109;27;20208;-68
2021/12/23 02:42:37;;;;;;;0.20;0.20;;;-2.00;99.90;;;;;;5102774;27;20225;-69
2021/12/23 02:45:09;;;;;;;0.25;0.25;;;-2.10;99.90;;;;;;5101923;27;20285;-69
2021/12/23 02:47:38;;;;;;;0.20;0.20;;;-2.10;99.90;;;;;;5122661;27;20203;-68
2021/12/23 02:50:06;;;;;;;0.20;0.20;;;-2.10;99.90;;;;;;5103985;27;20244;-68
2021/12/23 02:52:34;;;;;;;0.20;0.20;;;-2.00;99.90;;;;;;5101441;27;20228;-69
2021/12/23 02:55:02;;;;;;;0.30;0.30;;;-2.00;99.90;;;;;;5104297;27;20211;-69
2021/12/23 02:57:32;;;;;;;0.20;0.20;;;-2.00;99.90;;;;;;5103465;27;20197;-68
2021/12/23 02:59:59;;;;;;;0.20;0.20;;;-2.00;99.90;;;;;;5121784;27;20200;-69
2021/12/23 03:02:26;;;;;;;0.20;0.20;;;-2.00;99.90;;;;;;5104626;27;20796;-69
2021/12/23 03:04:53;;;;;;;0.20;0.20;;;-2.00;99.90;;;;;;5122155;27;20243;-69
2021/12/23 03:07:20;;;;;;;0.20;0.20;;;-2.00;99.90;;;;;;5101892;27;20200;-67
2021/12/23 03:09:47;;;;;;;0.20;0.20;;;-2.00;99.90;;;;;;5101098;27;20250;-67
2021/12/23 03:12:16;;;;;;;0.20;0.20;;;-2.00;99.90;;;;;;5092482;27;20224;-68
2021/12/23 03:14:42;;;;;;;0.20;0.20;;;-2.00;99.90;;;;;;5103869;27;20204;-69
2021/12/23 03:17:10;;;;;;;0.20;0.20;;;-2.00;99.90;;;;;;5102694;27;20239;-69
2021/12/23 03:19:37;;;;;;;0.20;0.20;;;-2.00;99.90;;;;;;5099351;27;20201;-68
2021/12/23 03:22:04;;;;;;;0.20;0.20;;;-2.00;99.90;;;;;;5100856;27;20220;-69
2021/12/23 03:24:31;;;;;;;0.20;0.20;;;-2.10;99.90;;;;;;5102721;27;20208;-68
2021/12/23 03:26:58;;;;;;;0.20;0.20;;;-2.00;99.90;;;;;;5121421;27;20220;-69
2021/12/23 03:29:27;;;;;;;0.20;0.20;;;-2.00;99.90;;;;;;5121357;27;20228;-69
2021/12/23 03:31:54;;;;;;;0.20;0.20;;;-2.00;99.90;;;;;;5119305;27;20219;-69
2021/12/23 03:34:21;;;;;;;0.20;0.20;;;-2.00;99.90;;;;;;5136958;27;20303;-68
2021/12/23 03:36:49;;;;;;;0.20;0.20;;;-2.00;99.90;;;;;;5120572;27;20224;-68
2021/12/23 03:39:16;;;;;;;0.20;0.20;;;-2.00;99.90;;;;;;5101937;27;20288;-68
2021/12/23 03:41:43;;;;;;;0.20;0.20;;;-2.00;99.90;;;;;;5120954;27;20204;-69
2021/12/23 03:44:10;;;;;;;0.20;0.20;;;-2.00;99.90;;;;;;5103138;27;20220;-69
2021/12/23 03:46:39;;;;;;;0.20;0.20;;;-2.00;99.90;;;;;;5118878;27;20215;-69
2021/12/23 03:49:06;;;;;;;0.20;0.20;;;-2.00;99.90;;;;;;5119970;27;20192;-68
2021/12/23 03:51:35;;;;;;;0.20;0.20;;;-1.90;99.90;;;;;;5102662;27;20210;-68
2021/12/23 03:54:03;;;;;;;0.20;0.20;;;-1.90;99.90;;;;;;5120209;27;20211;-69
2021/12/23 03:56:30;;;;;;;0.20;0.20;;;-1.90;99.90;;;;;;5100641;28;20296;-69
2021/12/23 03:58:57;;;;;;;0.20;0.20;;;-1.90;99.90;;;;;;5094940;28;20291;-69
2021/12/23 04:01:28;;;;;;;0.20;0.20;;;-1.90;99.90;;;;;;5120047;28;20193;-70
2021/12/23 04:03:56;;;;;;;0.20;0.20;;;-1.90;99.90;;;;;;5102212;28;20271;-69
2021/12/23 04:06:25;;;;;;;0.20;0.20;;;-1.90;99.90;;;;;;5100780;28;20293;-69
2021/12/23 04:08:51;;;;;;;0.20;0.20;;;-1.90;99.90;;;;;;5121889;28;20200;-70
2021/12/23 04:11:18;;;;;;;0.20;0.20;;;-1.90;99.90;;;;;;5103359;28;20192;-69
2021/12/23 04:13:45;;;;;;;0.20;0.20;;;-1.90;99.90;;;;;;5103848;28;20774;-69
2021/12/23 04:16:12;;;;;;;0.25;0.25;;;-1.80;99.90;;;;;;5102235;28;20278;-69
2021/12/23 04:18:39;;;;;;;0.20;0.20;;;-1.90;99.90;;;;;;5121801;28;20227;-70
2021/12/23 04:21:07;;;;;;;0.20;0.20;;;-1.90;99.90;;;;;;5103539;28;20697;-69
2021/12/23 04:23:35;;;;;;;0.20;0.20;;;-1.80;99.90;;;;;;5101704;28;20587;-69
2021/12/23 04:26:01;;;;;;;0.20;0.20;;;-1.90;99.90;;;;;;5117636;28;20200;-70
2021/12/23 04:28:29;;;;;;;0.20;0.20;;;-1.90;99.90;;;;;;5103709;28;20269;-69
2021/12/23 04:30:56;;;;;;;0.20;0.20;;;-1.90;99.90;;;;;;5101794;28;20200;-70
2021/12/23 04:33:23;;;;;;;0.20;0.20;;;-1.80;99.90;;;;;;5099805;28;20248;-69
2021/12/23 04:35:51;;;;;;;0.20;0.20;;;-1.80;99.90;;;;;;5119935;28;20192;-69
2021/12/23 04:38:19;;;;;;;0.20;0.20;;;-1.80;99.90;;;;;;5101347;28;20251;-69
2021/12/23 04:40:46;;;;;;;0.20;0.20;;;-1.80;99.90;;;;;;5092480;28;20197;-70
2021/12/23 04:43:13;;;;;;;0.20;0.20;;;-1.80;99.90;;;;;;5101206;28;20213;-69
2021/12/23 04:45:40;;;;;;;0.20;0.20;;;-1.80;99.90;;;;;;5100497;28;20211;-70
2021/12/23 04:48:07;;;;;;;0.20;0.20;;;-1.80;99.90;;;;;;5119537;28;20189;-70
2021/12/23 04:50:34;;;;;;;0.20;0.20;;;-1.80;99.90;;;;;;5102553;28;20213;-70
2021/12/23 04:53:01;;;;;;;0.20;0.20;;;-1.80;99.90;;;;;;5101953;28;20220;-70
2021/12/23 04:55:30;;;;;;;0.20;0.20;;;-1.80;99.90;;;;;;5102409;28;20193;-69
2021/12/23 04:57:58;;;;;;;0.20;0.20;;;-1.80;99.90;;;;;;5102580;27;20258;-69
2021/12/23 05:00:26;;;;;;;0.20;0.20;;;-1.70;99.90;;;;;;5107242;27;20327;-69
2021/12/23 05:02:53;;;;;;;0.10;0.10;;;-1.70;99.90;;;;;;5125221;27;20208;-71
2021/12/23 05:05:20;;;;;;;0.20;0.20;;;-1.70;99.90;;;;;;5118192;27;20201;-69
2021/12/23 05:07:48;;;;;;;0.20;0.20;;;-1.70;99.90;;;;;;5105833;27;20249;-70
2021/12/23 05:10:16;;;;;;;0.20;0.20;;;-1.70;99.90;;;;;;5123142;27;20197;-69
2021/12/23 05:12:46;;;;;;;0.20;0.20;;;-1.70;99.90;;;;;;5097234;27;20300;-69
2021/12/23 05:15:14;;;;;;;0.20;0.20;;;-1.70;99.90;;;;;;5122167;27;20215;-69
2021/12/23 05:17:41;;;;;;;0.20;0.20;;;-1.70;99.90;;;;;;5105341;27;20197;-68
2021/12/23 05:20:11;;;;;;;0.20;0.20;;;-1.70;99.90;;;;;;5105350;27;20199;-69
2021/12/23 05:22:38;;;;;;;0.20;0.20;;;-1.60;99.90;;;;;;5104682;27;20228;-69
2021/12/23 05:25:06;;;;;;;0.20;0.20;;;-1.70;99.90;;;;;;5105198;27;20193;-68
2021/12/23 05:27:33;;;;;;;0.20;0.20;;;-1.60;99.90;;;;;;5105652;27;20203;-67
2021/12/23 05:30:02;;;;;;;0.20;0.20;;;-1.60;99.90;;;;;;5121913;27;20200;-69
2021/12/23 05:32:29;;;;;;;0.20;0.20;;;-1.70;99.90;;;;;;5105744;27;20228;-70
2021/12/23 05:34:56;;;;;;;0.20;0.20;;;-1.60;99.90;;;;;;5104702;27;20293;-70
2021/12/23 05:37:23;;;;;;;0.20;0.20;;;-1.60;99.90;;;;;;5120947;27;20512;-68
2021/12/23 05:39:50;;;;;;;0.20;0.20;;;-1.60;99.90;;;;;;5105712;27;20276;-70
2021/12/23 05:42:17;;;;;;;0.20;0.20;;;-1.60;99.90;;;;;;5123328;27;20245;-68
2021/12/23 05:44:44;;;;;;;0.20;0.20;;;-1.60;99.90;;;;;;5122753;27;20213;-70
2021/12/23 05:47:12;;;;;;;0.20;0.20;;;-1.60;99.90;;;;;;5123824;27;20229;-69
2021/12/23 05:49:39;;;;;;;0.20;0.20;;;-1.60;99.90;;;;;;5104907;27;20204;-68
2021/12/23 05:52:07;;;;;;;0.20;0.20;;;-1.60;99.90;;;;;;5103731;27;20232;-70
2021/12/23 05:54:34;;;;;;;0.20;0.20;;;-1.50;99.90;;;;;;5105592;27;20224;-68
2021/12/23 05:57:02;;;;;;;0.20;0.20;;;-1.50;99.90;;;;;;5105347;27;20228;-70
2021/12/23 05:59:29;;;;;;;0.20;0.20;;;-1.50;99.90;;;;;;5121174;27;20200;-70
2021/12/23 06:01:56;;;;;;;0.20;0.20;;;-1.40;99.90;;;;;;5104559;27;20224;-67
2021/12/23 06:04:25;;;;;;;0.20;0.20;;;-1.40;99.90;;;;;;5103812;27;20221;-69
2021/12/23 06:06:53;;;;;;;0.20;0.20;;;-1.40;99.90;;;;;;5095569;27;20211;-69
2021/12/23 06:09:20;;;;;;;0.20;0.20;;;-1.40;99.90;;;;;;5109055;27;20264;-68
2021/12/23 06:11:47;;;;;;;0.20;0.20;;;-1.40;99.90;;;;;;5100541;27;20227;-69
2021/12/23 06:14:13;;;;;;;0.22;0.22;;;-1.40;99.90;;;;;;5101029;27;20575;-69
2021/12/23 06:16:40;;;;;;;0.20;0.20;;;-1.40;99.90;;;;;;5100608;27;20206;-69
2021/12/23 06:19:07;;;;;;;0.20;0.20;;;-1.40;99.90;;;;;;5098553;27;20252;-69
2021/12/23 06:21:36;;;;;;;0.20;0.20;;;-1.40;99.90;;;;;;5101440;27;20287;-68
2021/12/23 06:24:04;;;;;;;0.20;0.20;;;-1.30;99.90;;;;;;5100862;27;20217;-69
2021/12/23 06:26:32;;;;;;;0.20;0.20;;;-1.40;99.90;;;;;;5094924;27;20274;-68
2021/12/23 06:29:00;;;;;;;0.20;0.20;;;-1.30;99.90;;;;;;5135448;27;20204;-69
2021/12/23 06:31:27;;;;;;;0.20;0.20;;;-1.30;99.90;;;;;;5123909;27;20281;-69
2021/12/23 06:33:54;;;;;;;0.20;0.20;;;-1.30;99.90;;;;;;5104067;27;20200;-70
2021/12/23 06:36:20;;;;;;;0.20;0.20;;;-1.20;99.90;;;;;;5104610;27;20225;-69
2021/12/23 06:38:49;;;;;;;0.20;0.20;;;-1.20;99.90;;;;;;5103041;27;20228;-68
2021/12/23 06:41:18;;;;;;;0.20;0.20;;;-1.10;99.90;;;;;;5104408;27;20726;-69
2021/12/23 06:43:46;;;;;;;0.20;0.20;;;-1.10;99.90;;;;;;5119067;27;20209;-68
2021/12/23 06:46:13;;;;;;;0.20;0.20;;;-1.20;99.90;;;;;;5103495;27;20196;-68
2021/12/23 06:48:40;;;;;;;0.20;0.20;;;-1.20;99.90;;;;;;5107879;27;20261;-68
2021/12/23 06:51:07;;;;;;;0.20;0.20;;;-1.20;99.90;;;;;;5123615;27;20517;-68
2021/12/23 06:53:34;;;;;;;0.20;0.20;;;-1.10;99.90;;;;;;5108521;27;20296;-68
2021/12/23 06:56:03;;;;;;;0.20;0.20;;;-1.20;99.90;;;;;;5120264;27;20199;-68
2021/12/23 06:58:32;;;;;;;0.20;0.20;;;-1.20;99.90;;;;;;5108609;27;20208;-68
2021/12/23 07:01:00;;;;;;;0.25;0.25;;;-1.10;99.90;;;;;;5106780;27;20194;-68
2021/12/23 07:03:39;;;;;;;0.20;0.20;;;-1.20;99.90;;;;;;5102461;27;20311;-69
2021/12/23 07:06:07;;;;;;;0.10;0.10;;;-1.10;99.90;;;;;;5121334;27;20193;-68
2021/12/23 07:08:37;;;;;;;0.20;0.20;;;-1.10;99.90;;;;;;5108464;27;20200;-68
2021/12/23 07:11:06;;;;;;;0.20;0.20;;;-1.10;99.90;;;;;;5108162;27;20227;-68
2021/12/23 07:13:33;;;;;;;0.20;0.20;;;-1.20;99.90;;;;;;5124640;27;20209;-68
2021/12/23 07:16:01;;;;;;;0.20;0.20;;;-1.20;99.90;;;;;;5106739;28;20203;-68
2021/12/23 07:18:29;;;;;;;0.20;0.20;;;-1.20;99.90;;;;;;5107894;27;20261;-69
2021/12/23 07:20:56;;;;;;;0.20;0.20;;;-1.20;99.90;;;;;;5107010;27;20201;-69
2021/12/23 07:23:22;;;;;;;0.20;0.20;;;-1.20;99.90;;;;;;5108415;27;20221;-67
2021/12/23 07:25:49;;;;;;;0.20;0.20;;;-1.20;99.90;;;;;;5108314;27;20201;-69
2021/12/23 07:28:18;;;;;;;0.20;0.20;;;-1.20;99.90;;;;;;5107117;27;20200;-68
2021/12/23 07:30:44;;;;;;;0.20;0.20;;;-1.20;99.90;;;;;;5127774;27;20193;-69
2021/12/23 07:33:11;;;;;;;0.20;0.20;;;-1.10;99.90;;;;;;5106558;27;20221;-70
2021/12/23 07:35:39;;;;;;;0.20;0.20;;;-1.10;99.90;;;;;;5104410;27;20196;-69
2021/12/23 07:38:07;;;;;;;0.20;0.20;;;-1.10;99.90;;;;;;5106726;27;20201;-70
2021/12/23 07:40:34;;;;;;;0.20;0.20;;;-1.10;99.90;;;;;;5108670;27;20213;-70
2021/12/23 07:43:09;;;;;;;0.20;0.20;;;-1.10;99.90;;;;;;5102936;27;20216;-70
2021/12/23 07:45:39;;;;;;;0.20;0.20;;;-1.00;99.90;;;;;;5107244;27;20245;-70
2021/12/23 07:48:06;;;;;;;0.20;0.20;;;-1.10;99.90;;;;;;5108230;28;20197;-70
2021/12/23 07:50:33;;;;;;;0.20;0.20;;;-1.00;99.90;;;;;;5104878;28;20201;-70
2021/12/23 07:53:00;;;;;;;0.20;0.20;;;-1.00;99.90;;;;;;5106136;28;20304;-69
2021/12/23 07:55:27;;;;;;;0.20;0.20;;;-1.00;99.90;;;;;;5107401;27;20203;-69
2021/12/23 07:57:54;;;;;;;0.20;0.20;;;-1.00;99.90;;;;;;5107554;28;20197;-69
2021/12/23 08:00:22;;;;;;;0.20;0.20;;;-1.00;99.90;;;;;;5126564;27;20288;-69
2021/12/23 08:02:50;;;;;;;0.20;0.20;;;-1.00;99.90;;;;;;5096993;28;20305;-68
2021/12/23 08:05:17;;;;;;;0.20;0.20;;;-1.00;99.90;;;;;;5108954;28;20208;-68
2021/12/23 08:07:44;;;;;;;0.20;0.20;;;-1.00;99.90;;;;;;5102384;28;20316;-68
2021/12/23 08:10:11;;;;;;;0.20;0.20;;;-1.00;99.90;;;;;;5105684;28;20193;-68
2021/12/23 08:12:39;;;;;;;0.20;0.20;;;-1.00;99.90;;;;;;5105621;28;20270;-67
2021/12/23 08:15:07;;;;;;;0.20;0.20;;;-0.90;99.90;;;;;;5106605;28;20197;-68
2021/12/23 08:17:34;;;;;;;0.20;0.20;;;-0.90;99.90;;;;;;5125105;28;20188;-67
2021/12/23 08:20:03;;;;;;;0.20;0.20;;;-0.90;99.90;;;;;;5122552;28;20193;-68
2021/12/23 08:22:30;;;;;;;0.20;0.20;;;-0.90;99.90;;;;;;5105029;28;20242;-68
2021/12/23 08:24:57;;;;;;;0.20;0.20;;;-0.90;99.90;;;;;;5104780;28;20210;-68
2021/12/23 08:27:27;;;;;;;0.20;0.20;;;-0.80;99.90;;;;;;5115734;28;20211;-69
2021/12/23 08:29:55;;;;;;;0.20;0.20;;;-0.80;99.90;;;;;;5101355;28;20249;-68
2021/12/23 08:32:22;;;;;;;0.20;0.20;;;-0.80;99.90;;;;;;5106058;27;20223;-68
2021/12/23 08:34:49;;;;;;;0.20;0.20;;;-0.70;99.90;;;;;;5109708;27;20246;-68
2021/12/23 08:37:18;;;;;;;0.20;0.20;;;-0.70;99.90;;;;;;5110465;27;20245;-68
2021/12/23 08:39:47;;;;;;;0.20;0.20;;;-0.70;99.90;;;;;;5127840;27;20232;-68
2021/12/23 08:42:14;;;;;;;0.20;0.20;;;-0.70;99.90;;;;;;5109608;27;20235;-69
2021/12/23 08:44:41;;;;;;;0.20;0.20;;;-0.70;99.90;;;;;;5110417;27;20220;-69
2021/12/23 08:47:09;;;;;;;0.20;0.20;;;-0.70;99.90;;;;;;5110564;27;20727;-70
2021/12/23 08:49:36;;;;;;;0.20;0.20;;;-0.60;99.90;;;;;;5111107;27;20291;-69
2021/12/23 08:52:04;;;;;;;0.20;0.20;;;-0.60;99.90;;;;;;5111027;27;20216;-68
2021/12/23 08:54:32;;;;;;;0.20;0.20;;;-0.60;99.90;;;;;;5110859;27;20205;-69
2021/12/23 08:57:00;;;;;;;0.20;0.20;;;-0.50;99.90;;;;;;5110645;27;20189;-68
2021/12/23 08:59:27;;;;;;;0.20;0.20;;;-0.50;99.90;;;;;;5108715;27;20209;-69
2021/12/23 09:01:55;;;;;;;0.20;0.20;;;-0.50;99.90;;;;;;5102714;27;20217;-67
2021/12/23 09:04:22;;;;;;;0.20;0.20;;;-0.50;99.90;;;;;;5127114;27;20698;-68
2021/12/23 09:06:50;;;;;;;0.20;0.20;;;-0.50;99.90;;;;;;5108652;27;20246;-71
2021/12/23 09:09:17;;;;;;;0.10;0.10;;;-0.50;99.90;;;;;;5126307;27;20196;-68
2021/12/23 09:11:45;;;;;;;0.20;0.20;;;-0.50;99.90;;;;;;5103323;27;20241;-69
2021/12/23 09:14:12;;;;;;;0.20;0.20;;;-0.40;99.90;;;;;;5112985;27;20682;-68
2021/12/23 09:16:39;;;;;;;0.20;0.20;;;-0.40;99.90;;;;;;5114650;27;20226;-68
2021/12/23 09:19:08;;;;;;;0.10;0.10;;;-0.40;99.90;;;;;;5107797;27;20208;-68
2021/12/23 09:21:35;;;;;;;0.10;0.10;;;-0.40;99.90;;;;;;5108870;27;20207;-68
2021/12/23 09:24:03;;;;;;;0.20;0.20;;;-0.40;99.90;;;;;;5107063;27;20284;-68
2021/12/23 09:26:35;;;;;;;0.20;0.20;;;-0.40;99.90;;;;;;5105440;27;20205;-71
2021/12/23 09:29:09;;;;;;;0.10;0.10;;;-0.40;99.90;;;;;;5125844;27;20577;-68
2021/12/23 09:34:21;;;;;;;0.20;0.20;;;-0.30;99.90;;;;;;5104100;27;20279;-68
2021/12/23 09:36:48;;;;;;;0.10;0.10;;;-0.30;99.90;;;;;;5104369;27;20289;-69
2021/12/23 09:39:15;;;;;;;0.30;0.30;;;-0.20;99.90;;;;;;5105475;27;20205;-68
2021/12/23 09:41:45;;;;;;;0.20;0.20;;;-0.20;99.90;;;;;;5104544;27;20201;-70
2021/12/23 09:44:14;;;;;;;0.20;0.20;;;-0.20;99.90;;;;;;5094292;27;20245;-69
2021/12/23 09:46:42;;;;;;;0.20;0.20;;;-0.10;99.90;;;;;;5104689;27;20203;-70
2021/12/23 09:49:09;;;;;;;0.20;0.20;;;-0.10;99.90;;;;;;5123726;27;20216;-69
2021/12/23 09:51:37;;;;;;;0.20;0.20;;;-0.10;99.90;;;;;;5101545;27;20197;-69
2021/12/23 09:54:07;;;;;;;0.10;0.10;;;-0.10;99.90;;;;;;5101813;27;20260;-69
2021/12/23 09:56:37;;;;;;;0.20;0.20;;;0.00;99.90;;;;;;5097703;27;20188;-69
2021/12/23 09:59:07;;;;;;;0.20;0.20;;;0.00;99.90;;;;;;5098130;27;20226;-69
2021/12/23 10:01:37;;;;;;;0.20;0.20;;;0.00;99.90;;;;;;5124477;27;20216;-69
2021/12/23 10:04:05;;;;;;;0.20;0.20;;;0.10;99.90;;;;;;5122944;27;20192;-70
2021/12/23 10:06:32;;;;;;;0.20;0.20;;;0.10;99.90;;;;;;5105199;27;20288;-68
2021/12/23 10:08:59;;;;;;;0.20;0.20;;;0.20;99.90;;;;;;5116910;27;20266;-67
2021/12/23 10:11:35;;;;;;;0.20;0.20;;;0.20;99.90;;;;;;5123086;27;20207;-68
2021/12/23 10:31:05;;;;;;;0.10;0.10;;;0.40;99.90;;;;;;5098954;27;20213;-69
2021/12/23 10:33:47;;;;;;;0.10;0.10;;;0.50;99.90;;;;;;5103726;27;20614;-69
2021/12/23 10:39:00;;;;;;;0.15;0.15;;;0.50;99.90;;;;;;5106072;27;20199;-69
2021/12/23 10:41:28;;;;;;;0.20;0.20;;;0.50;99.90;;;;;;5103952;27;20193;-69
2021/12/23 10:43:58;;;;;;;0.20;0.20;;;0.60;99.90;;;;;;5112611;27;20204;-70
2021/12/23 10:46:28;;;;;;;0.10;0.10;;;0.60;99.90;;;;;;5125058;27;20288;-69
2021/12/23 10:49:11;;;;;;;0.20;0.20;;;0.60;99.90;;;;;;5103977;27;20204;-69
2021/12/23 10:51:57;;;;;;;0.20;0.20;;;0.60;99.90;;;;;;5121206;27;20199;-69
2021/12/23 11:00:15;;;;;;;0.20;0.20;;;0.60;99.90;;;;;;5114555;27;20197;-69
2021/12/23 11:02:57;;;;;;;0.17;0.17;;;0.60;99.90;;;;;;5115798;27;20219;-68
2021/12/23 11:05:30;;;;;;;0.10;0.10;;;0.60;99.90;;;;;;5106483;27;20212;-70
2021/12/23 11:08:04;;;;;;;0.20;0.20;;;0.60;99.90;;;;;;5123748;27;20613;-69
2021/12/23 11:10:59;;;;;;;0.20;0.20;;;0.70;99.90;;;;;;5125648;27;20200;-68
2021/12/23 11:40:25;;;;;;;0.10;0.10;;;0.90;99.90;;;;;;4977658;28;20651;-68
2021/12/23 11:43:25;;;;;;;0.10;0.10;;;1.00;99.90;;;;;;4976616;28;20594;-66
2021/12/23 11:46:03;;;;;;;0.20;0.20;;;0.90;99.90;;;;;;4998915;28;20224;-67
2021/12/23 11:48:44;;;;;;;0.10;0.10;;;1.00;99.90;;;;;;4974123;28;20270;-68
2021/12/23 11:51:58;;;;;;;0.10;0.10;;;1.10;99.90;;;;;;4927424;28;20264;-68
2021/12/23 11:54:37;;;;;;;0.10;0.10;;;1.10;99.90;;;;;;4976768;28;20402;-67
2021/12/23 11:57:17;;;;;;;0.10;0.10;;;1.10;99.90;;;;;;4940258;28;20320;-66
2021/12/23 12:00:16;;;;;;;0.10;0.10;;;1.10;99.90;;;;;;4959729;28;20253;-68
2021/12/23 12:03:01;;;;;;;0.20;0.20;;;1.20;99.90;;;;;;4946555;28;20622;-67
2021/12/23 12:05:33;;;;;;;0.20;0.20;;;1.20;99.90;;;;;;4983737;28;20202;-67
2021/12/23 12:08:16;;;;;;;0.10;0.10;;;1.30;99.90;;;;;;4940468;28;20688;-68
2021/12/23 12:10:53;;;;;;;0.10;0.10;;;1.30;99.90;;;;;;4978471;28;20217;-65
2021/12/23 12:13:42;;;;;;;0.10;0.10;;;1.30;99.90;;;;;;4928218;28;20326;-70
2021/12/23 12:16:31;;;;;;;0.13;0.13;;;1.30;99.90;;;;;;4947914;28;20208;-74
2021/12/23 12:19:10;;;;;;;0.10;0.10;;;1.40;99.90;;;;;;4977372;28;20221;-67
2021/12/23 12:21:48;;;;;;;0.20;0.20;;;1.40;99.90;;;;;;5044075;28;20742;-67
2021/12/23 12:24:19;;;;;;;0.10;0.10;;;1.50;99.90;;;;;;4979099;28;20668;-69
2021/12/23 12:26:56;;;;;;;0.10;0.10;;;1.50;99.90;;;;;;4993631;28;20643;-70
2021/12/23 12:29:36;;;;;;;0.20;0.20;;;1.60;99.90;;;;;;4966724;28;20232;-70
2021/12/23 12:32:44;;;;;;;0.20;0.20;;;1.50;99.90;;;;;;4926182;28;20624;-69
2021/12/23 12:35:20;;;;;;;0.20;0.20;;;1.60;99.90;;;;;;4973285;28;20650;-70
2021/12/23 12:37:53;;;;;;;0.10;0.10;;;1.50;99.90;;;;;;4935799;28;20639;-70
2021/12/23 12:40:20;;;;;;;0.10;0.10;;;1.60;99.90;;;;;;4926973;28;20734;-70
2021/12/23 12:42:55;;;;;;;0.10;0.10;;;1.50;99.90;;;;;;4865070;28;20704;-71
2021/12/23 12:45:41;;;;;;;0.10;0.10;;;1.30;99.90;;;;;;4964332;28;20708;-72
2021/12/23 12:48:10;;;;;;;0.10;0.10;;;1.40;99.90;;;;;;4949336;28;20658;-71
2021/12/23 12:50:45;;;;;;;0.10;0.10;;;1.50;99.90;;;;;;4957755;28;20670;-69
2021/12/23 12:53:18;;;;;;;0.20;0.20;;;1.50;99.90;;;;;;4990613;28;20631;-72
2021/12/23 12:55:51;;;;;;;0.20;0.20;;;1.40;99.90;;;;;;4978136;28;20822;-72
2021/12/23 12:58:39;;;;;;;0.10;0.10;;;1.40;99.90;;;;;;4977736;28;20695;-70
2021/12/23 13:01:08;;;;;;;0.10;0.10;;;1.10;99.90;;;;;;4969867;28;20710;-70
2021/12/23 13:03:53;;;;;;;0.10;0.10;;;1.40;99.90;;;;;;4980940;28;20620;-70
2021/12/23 13:06:21;;;;;;;0.10;0.10;;;1.30;99.90;;;;;;4973017;28;21103;-72
2021/12/23 13:09:21;;;;;;;0.10;0.10;;;1.50;99.90;;;;;;4986285;28;20648;-72
2021/12/23 13:12:08;;;;;;;0.10;0.10;;;1.30;99.90;;;;;;4977530;28;20209;-70
2021/12/23 13:15:20;;;;;;;0.20;0.20;;;1.10;99.90;;;;;;4975000;28;20631;-70
2021/12/23 13:18:54;;;;;;;0.10;0.10;;;1.30;99.90;;;;;;4982384;28;20653;-67
2021/12/23 13:21:24;;;;;;;0.10;0.10;;;1.30;99.90;;;;;;4923567;28;20229;-69
2021/12/23 13:24:02;;;;;;;0.10;0.10;;;1.40;99.90;;;;;;5061878;28;20611;-69
2021/12/23 13:26:32;;;;;;;0.10;0.10;;;1.30;99.90;;;;;;5072904;28;20622;-70
2021/12/23 13:29:00;;;;;;;0.10;0.10;;;1.20;99.90;;;;;;5060026;28;20747;-68
2021/12/23 13:31:29;;;;;;;0.10;0.10;;;1.20;99.90;;;;;;5066650;28;20772;-68
2021/12/23 13:33:58;;;;;;;0.20;0.20;;;1.20;99.90;;;;;;5060642;28;20616;-68
2021/12/23 13:36:28;;;;;;;0.10;0.10;;;1.20;99.90;;;;;;5062968;28;20631;-68
2021/12/23 13:38:57;;;;;;;0.10;0.10;;;1.10;99.90;;;;;;5060935;28;20620;-72
2021/12/23 13:41:28;;;;;;;0.10;0.10;;;1.30;99.90;;;;;;5055613;28;20716;-72
2021/12/23 13:44:07;;;;;;;0.20;0.20;;;1.40;99.90;;;;;;4967200;28;20617;-71
2021/12/23 13:46:40;;;;;;;0.10;0.10;;;1.30;99.90;;;;;;4952055;28;20636;-71
2021/12/23 13:49:16;;;;;;;0.10;0.10;;;1.20;99.90;;;;;;4945002;28;21271;-69
2021/12/23 13:51:57;;;;;;;0.10;0.10;;;1.40;99.90;;;;;;4965058;28;20628;-66
2021/12/23 13:54:42;;;;;;;0.10;0.10;;;1.40;99.90;;;;;;4955454;28;20635;-66
2021/12/23 13:57:18;;;;;;;0.10;0.10;;;1.20;99.90;;;;;;4967397;28;20631;-70
2021/12/23 14:00:00;;;;;;;0.10;0.10;;;1.50;99.90;;;;;;4952660;28;20679;-70
2021/12/23 14:02:46;;;;;;;0.10;0.10;;;1.40;99.90;;;;;;4969294;28;20616;-70
2021/12/23 14:05:19;;;;;;;0.17;0.17;;;1.40;99.90;;;;;;4951464;28;20737;-69